Time;durP1;ratioP1;P1;durP2;ratioP2;P2;SDS_P1;SDS_P2;PMS_P1;PMS_P2;Temp;Humidity;BMP_temperature;BMP_pressure;BME280_temperature;BME280_humidity;BME280_pressure;Samples;Min_cycle;Max_cycle;Signal;HPM_P1;HPM_P2
2022/05/21 00:00:41;;;;;;;20.65;13.25;;;11.00;99.90;;;;;;5022576;28;20165;-68
2022/05/21 00:03:09;;;;;;;20.20;13.32;;;11.00;99.90;;;;;;5025759;28;20042;-68
2022/05/21 00:05:35;;;;;;;19.15;13.00;;;11.00;99.90;;;;;;5022016;28;20091;-68
2022/05/21 00:08:01;;;;;;;20.02;13.55;;;10.90;99.90;;;;;;5023182;28;20037;-68
2022/05/21 00:10:30;;;;;;;22.05;13.00;;;10.90;99.90;;;;;;5022091;28;20405;-69
2022/05/21 00:12:56;;;;;;;18.20;14.32;;;11.00;99.90;;;;;;5022718;28;20119;-68
2022/05/21 00:15:25;;;;;;;19.52;14.18;;;10.90;99.90;;;;;;5023067;28;20045;-69
2022/05/21 00:17:51;;;;;;;23.45;14.82;;;10.90;99.90;;;;;;5022886;28;20692;-69
2022/05/21 00:23:27;;;;;;;23.92;14.70;;;10.90;99.90;;;;;;5021078;28;20069;-69
2022/05/21 00:26:10;;;;;;;20.88;14.60;;;10.90;99.90;;;;;;5024179;28;20037;-68
2022/05/21 00:28:38;;;;;;;19.33;15.70;;;10.80;99.90;;;;;;5024225;28;20056;-69
2022/05/21 00:31:05;;;;;;;23.05;15.93;;;10.90;99.90;;;;;;5017847;28;20629;-69
2022/05/21 00:33:30;;;;;;;20.15;15.63;;;10.90;99.90;;;;;;5022879;28;20045;-69
2022/05/21 00:35:56;;;;;;;23.23;15.80;;;10.90;99.90;;;;;;5022131;28;20033;-68
2022/05/21 00:38:22;;;;;;;20.38;15.50;;;10.90;99.90;;;;;;5023738;28;20446;-69
2022/05/21 00:40:49;;;;;;;20.83;16.17;;;10.90;99.90;;;;;;5022362;28;20412;-69
2022/05/21 00:43:34;;;;;;;23.07;17.87;;;11.00;99.90;;;;;;5023710;28;20115;-68
2022/05/21 00:46:00;;;;;;;24.85;18.10;;;11.00;99.90;;;;;;5021741;28;20640;-69
2022/05/21 00:48:26;;;;;;;27.85;19.85;;;11.00;99.90;;;;;;5022753;28;20046;-68
2022/05/21 00:50:52;;;;;;;29.10;20.55;;;11.00;99.90;;;;;;5022625;28;20068;-69
2022/05/21 00:53:18;;;;;;;32.03;21.85;;;11.00;99.90;;;;;;5022716;28;20045;-68
2022/05/21 00:55:44;;;;;;;28.30;21.33;;;11.00;99.90;;;;;;5024262;28;20132;-69
2022/05/21 01:00:57;;;;;;;32.05;24.05;;;11.00;99.90;;;;;;5020231;28;20559;-68
2022/05/21 01:03:27;;;;;;;32.63;22.90;;;11.00;99.90;;;;;;5037263;28;20045;-67
2022/05/21 01:05:52;;;;;;;33.97;23.58;;;11.00;99.90;;;;;;5023785;28;20132;-67
2022/05/21 01:08:18;;;;;;;30.55;23.70;;;10.90;99.90;;;;;;5021738;28;20552;-67
2022/05/21 01:10:49;;;;;;;32.25;23.02;;;10.90;99.90;;;;;;5003969;28;20152;-67
2022/05/21 01:13:19;;;;;;;36.40;24.40;;;10.90;99.90;;;;;;5021430;28;20554;-67
2022/05/21 01:15:49;;;;;;;34.67;26.02;;;10.90;99.90;;;;;;5022106;28;20342;-67
2022/05/21 01:18:14;;;;;;;32.60;25.27;;;10.90;99.90;;;;;;5022758;28;20428;-67
2022/05/21 01:20:52;;;;;;;36.20;27.15;;;10.90;99.90;;;;;;5020246;28;20048;-67
2022/05/21 01:23:19;;;;;;;37.10;26.58;;;10.90;99.90;;;;;;5017563;28;20048;-66
2022/05/21 01:25:47;;;;;;;35.40;27.13;;;10.90;99.90;;;;;;5021811;28;20056;-67
2022/05/21 01:28:15;;;;;;;41.85;28.30;;;11.00;99.90;;;;;;5022305;28;20489;-67
2022/05/21 01:30:42;;;;;;;;;;;11.00;99.90;;;;;;5026751;28;20037;-67
2022/05/21 01:33:11;;;;;;;35.22;28.08;;;10.90;99.90;;;;;;5026251;28;20331;-68
2022/05/21 01:35:39;;;;;;;39.10;28.80;;;11.20;99.90;;;;;;5026351;28;20511;-67
2022/05/21 01:38:05;;;;;;;;;;;11.10;99.90;;;;;;5025272;28;20037;-67
2022/05/21 01:40:31;;;;;;;36.05;28.70;;;11.10;99.90;;;;;;5027607;28;19928;-67
2022/05/21 01:45:41;;;;;;;36.78;30.55;;;11.30;99.90;;;;;;5026173;28;20049;-67
2022/05/21 01:48:07;;;;;;;44.72;31.17;;;11.40;99.90;;;;;;5026031;28;20037;-67
2022/05/21 01:50:33;;;;;;;42.70;30.83;;;11.30;99.90;;;;;;5026164;28;20038;-67
2022/05/21 01:52:59;;;;;;;35.92;31.65;;;11.50;99.90;;;;;;5025071;28;20377;-67
2022/05/21 01:55:25;;;;;;;39.38;31.38;;;;;;;;;;5026518;28;20049;-68
2022/05/21 01:57:51;;;;;;;42.67;33.30;;;11.50;99.90;;;;;;5027744;28;20042;-67
2022/05/21 02:00:18;;;;;;;39.03;32.55;;;11.60;99.90;;;;;;5023756;28;20087;-67
2022/05/21 02:02:44;;;;;;;38.33;32.60;;;11.60;99.90;;;;;;5027611;28;20042;-68
2022/05/21 02:05:10;;;;;;;38.53;32.28;;;11.70;99.90;;;;;;5026586;28;20049;-68
2022/05/21 02:07:36;;;;;;;39.05;33.15;;;11.70;99.90;;;;;;5024428;28;20053;-68
2022/05/21 02:10:03;;;;;;;37.60;32.83;;;11.70;99.90;;;;;;5026558;28;20041;-68
2022/05/21 02:12:28;;;;;;;39.70;33.08;;;11.70;99.90;;;;;;5025154;28;20049;-68
2022/05/21 02:14:57;;;;;;;40.67;33.55;;;11.80;99.90;;;;;;5025522;28;20049;-67
2022/05/21 02:17:23;;;;;;;34.72;30.98;;;11.80;99.90;;;;;;5025118;28;20187;-68
2022/05/21 02:19:48;;;;;;;41.88;33.70;;;11.80;99.90;;;;;;5025588;28;20536;-68
2022/05/21 02:22:15;;;;;;;38.60;32.22;;;11.80;99.90;;;;;;5023316;28;20033;-68
2022/05/21 02:24:40;;;;;;;38.25;34.13;;;11.80;99.90;;;;;;5024890;28;20410;-68
2022/05/21 02:27:10;;;;;;;39.47;32.92;;;11.90;99.90;;;;;;5025627;28;20048;-68
2022/05/21 02:29:37;;;;;;;35.47;30.80;;;11.90;99.90;;;;;;5025178;28;20762;-68
2022/05/21 02:32:04;;;;;;;35.53;31.65;;;11.90;99.90;;;;;;5025899;28;20038;-67
2022/05/21 02:34:30;;;;;;;36.97;31.83;;;11.90;99.90;;;;;;5024054;28;20056;-67
2022/05/21 02:39:40;;;;;;;38.38;30.50;;;11.90;99.90;;;;;;5023041;28;20531;-66
2022/05/21 02:42:43;;;;;;;33.90;30.25;;;11.90;99.90;;;;;;5023108;28;20068;-66
2022/05/21 02:44:52;;;;;;;32.03;27.48;;;12.00;99.90;;;;;;5023747;28;20049;-66
2022/05/21 02:47:18;;;;;;;34.10;27.83;;;12.00;99.90;;;;;;5025157;28;20038;-66
2022/05/21 02:49:43;;;;;;;35.22;29.80;;;12.00;99.90;;;;;;5025437;28;20412;-67
2022/05/21 02:52:09;;;;;;;31.05;26.25;;;12.10;99.90;;;;;;5023716;28;20064;-66
2022/05/21 02:54:34;;;;;;;33.92;29.27;;;12.00;99.90;;;;;;5022614;28;20038;-66
2022/05/21 02:57:00;;;;;;;31.42;26.10;;;12.10;99.90;;;;;;5025003;28;20067;-67
2022/05/21 02:59:28;;;;;;;28.10;25.15;;;12.10;99.90;;;;;;5025275;28;20412;-68
2022/05/21 03:01:53;;;;;;;;;;;12.10;99.90;;;;;;5026626;28;20447;-67
2022/05/21 03:04:19;;;;;;;35.60;26.95;;;12.10;99.90;;;;;;5022345;28;20017;-68
2022/05/21 03:06:44;;;;;;;32.10;25.38;;;12.10;99.90;;;;;;5027075;28;20489;-68
2022/05/21 03:11:54;;;;;;;32.40;25.80;;;12.10;99.90;;;;;;5025634;28;20108;-67
2022/05/21 03:14:20;;;;;;;32.10;25.83;;;12.10;99.90;;;;;;5024403;28;20045;-68
2022/05/21 03:16:45;;;;;;;32.90;24.45;;;12.00;99.90;;;;;;5022880;28;20061;-67
2022/05/21 03:19:11;;;;;;;33.28;25.15;;;12.00;99.90;;;;;;5025039;28;20042;-68
2022/05/21 03:21:37;;;;;;;31.27;25.73;;;12.00;99.90;;;;;;5025249;28;20033;-68
2022/05/21 03:24:03;;;;;;;32.35;24.40;;;12.00;99.90;;;;;;5023388;28;20453;-68
2022/05/21 03:26:29;;;;;;;33.03;24.33;;;12.00;99.90;;;;;;5025692;28;20773;-68
2022/05/21 03:28:55;;;;;;;29.13;22.98;;;12.00;99.90;;;;;;5024832;28;20042;-69
2022/05/21 03:31:20;;;;;;;35.92;24.42;;;12.00;99.90;;;;;;5023782;28;20042;-69
2022/05/21 03:33:46;;;;;;;29.63;22.63;;;12.00;99.90;;;;;;5025140;28;20118;-69
2022/05/21 03:36:12;;;;;;;33.90;22.08;;;12.00;99.90;;;;;;5024930;28;20124;-68
2022/05/21 03:38:38;;;;;;;32.50;23.30;;;;;;;;;;5022856;28;20045;-68
2022/05/21 03:41:03;;;;;;;31.25;22.90;;;12.10;99.90;;;;;;5023571;28;20037;-68
2022/05/21 03:43:29;;;;;;;29.15;22.35;;;12.00;99.90;;;;;;5023985;28;20052;-69
2022/05/21 03:45:55;;;;;;;29.45;21.58;;;12.00;99.90;;;;;;5024965;28;20033;-69
2022/05/21 03:48:21;;;;;;;28.88;21.65;;;12.10;99.90;;;;;;5025634;28;20041;-68
2022/05/21 03:50:46;;;;;;;27.85;20.65;;;12.20;99.90;;;;;;5023156;28;20080;-68
2022/05/21 03:53:15;;;;;;;27.20;20.77;;;;;;;;;;5021088;28;20049;-68
2022/05/21 03:55:40;;;;;;;32.38;20.95;;;12.00;99.90;;;;;;5023272;28;20359;-69
2022/05/21 03:58:06;;;;;;;28.60;21.17;;;12.00;99.90;;;;;;5025303;28;20120;-68
2022/05/21 04:00:32;;;;;;;26.95;20.92;;;12.00;99.90;;;;;;5023083;28;20709;-69
2022/05/21 04:02:59;;;;;;;26.52;20.38;;;12.00;99.90;;;;;;5023989;28;20122;-68
2022/05/21 04:05:25;;;;;;;32.75;21.80;;;12.10;99.90;;;;;;5023749;28;20049;-67
2022/05/21 04:07:50;;;;;;;30.00;20.40;;;12.20;99.90;;;;;;5023501;28;20385;-68
2022/05/21 04:10:18;;;;;;;29.90;20.83;;;12.20;99.90;;;;;;5020259;28;20041;-65
2022/05/21 04:12:44;;;;;;;29.13;20.38;;;12.20;99.90;;;;;;5023401;28;20124;-68
2022/05/21 04:15:11;;;;;;;28.33;19.70;;;12.20;99.90;;;;;;5020701;28;20132;-67
2022/05/21 04:17:37;;;;;;;31.33;20.43;;;12.20;99.90;;;;;;5022801;28;20404;-68
2022/05/21 04:20:06;;;;;;;25.20;19.05;;;12.30;99.90;;;;;;5024425;28;20296;-67
2022/05/21 04:22:32;;;;;;;30.55;20.15;;;12.30;99.90;;;;;;5025651;28;20048;-68
2022/05/21 04:24:57;;;;;;;28.25;19.70;;;12.30;99.90;;;;;;5026572;28;20128;-68
2022/05/21 04:27:23;;;;;;;27.35;19.80;;;12.40;99.90;;;;;;5027259;28;20069;-68
2022/05/21 04:29:48;;;;;;;24.27;17.90;;;12.40;99.90;;;;;;5026845;28;20065;-68
2022/05/21 04:32:14;;;;;;;29.45;19.27;;;;;;;;;;5028539;28;20102;-68
2022/05/21 04:34:40;;;;;;;25.92;17.50;;;12.50;99.90;;;;;;5025451;28;20037;-67
2022/05/21 04:37:05;;;;;;;26.35;18.00;;;12.50;99.90;;;;;;5030911;28;20065;-67
2022/05/21 04:39:31;;;;;;;27.38;18.15;;;12.50;99.90;;;;;;5027871;28;20389;-66
2022/05/21 04:41:58;;;;;;;23.05;16.77;;;12.50;99.90;;;;;;5027122;28;20041;-66
2022/05/21 04:44:25;;;;;;;26.93;16.90;;;12.50;99.90;;;;;;5026230;28;20056;-67
2022/05/21 04:46:50;;;;;;;25.73;16.33;;;12.50;99.90;;;;;;5027544;28;20091;-67
2022/05/21 04:49:16;;;;;;;23.35;16.67;;;12.60;99.90;;;;;;5028591;28;20463;-69
2022/05/21 04:51:42;;;;;;;24.70;15.63;;;12.60;99.90;;;;;;5025902;28;20053;-69
2022/05/21 04:54:07;;;;;;;21.80;15.48;;;12.60;99.90;;;;;;5028739;28;20083;-67
2022/05/21 04:56:34;;;;;;;25.17;15.68;;;12.70;99.90;;;;;;5025572;28;20041;-67
2022/05/21 04:58:59;;;;;;;21.17;15.88;;;12.60;99.90;;;;;;5028427;28;20111;-67
2022/05/21 05:01:25;;;;;;;20.27;14.30;;;12.60;99.90;;;;;;5026848;28;20053;-68
2022/05/21 05:03:50;;;;;;;22.35;14.25;;;12.70;99.90;;;;;;5027911;28;20033;-68
2022/05/21 05:06:16;;;;;;;24.75;13.82;;;12.70;99.90;;;;;;5027824;28;20045;-68
2022/05/21 05:08:42;;;;;;;24.55;13.60;;;13.10;99.90;;;;;;5027575;28;20139;-68
2022/05/21 05:11:07;;;;;;;19.95;12.10;;;13.50;99.90;;;;;;5026712;28;20048;-68
2022/05/21 05:13:33;;;;;;;20.10;10.13;;;13.70;99.90;;;;;;5028174;28;20042;-67
2022/05/21 05:15:58;;;;;;;21.00;8.73;;;13.70;99.90;;;;;;5024497;28;20055;-67
2022/05/21 05:18:27;;;;;;;18.77;8.50;;;13.60;99.90;;;;;;5026625;28;20040;-66
2022/05/21 05:20:53;;;;;;;16.45;7.00;;;13.60;99.90;;;;;;5025841;28;20132;-67
2022/05/21 05:23:19;;;;;;;16.45;7.13;;;13.70;99.90;;;;;;5020226;28;20045;-66
2022/05/21 05:25:44;;;;;;;18.33;7.00;;;13.70;99.90;;;;;;5023457;28;20061;-68
2022/05/21 05:28:14;;;;;;;20.50;7.32;;;13.80;99.90;;;;;;5023338;28;20144;-68
2022/05/21 05:30:40;;;;;;;17.33;7.55;;;14.10;99.90;;;;;;5021092;28;20075;-67
2022/05/21 05:33:05;;;;;;;15.60;7.30;;;14.10;99.90;;;;;;5023282;28;20042;-67
2022/05/21 05:35:31;;;;;;;14.95;6.80;;;14.20;99.90;;;;;;5023584;28;20042;-67
2022/05/21 05:37:56;;;;;;;16.05;7.07;;;14.20;99.90;;;;;;5022331;28;20069;-67
2022/05/21 05:40:22;;;;;;;12.98;6.80;;;14.20;99.90;;;;;;5021785;28;20073;-67
2022/05/21 05:42:48;;;;;;;15.77;6.93;;;14.20;99.90;;;;;;5021611;28;20033;-67
2022/05/21 05:45:15;;;;;;;19.98;7.85;;;14.20;99.90;;;;;;5024024;28;20075;-66
2022/05/21 05:47:41;;;;;;;15.90;7.00;;;14.70;99.90;;;;;;5022635;28;20045;-67
2022/05/21 05:50:07;;;;;;;14.10;6.90;;;14.80;99.90;;;;;;5024177;28;20520;-67
2022/05/21 05:52:33;;;;;;;18.83;6.95;;;15.40;99.90;;;;;;5023219;28;20097;-67
2022/05/21 05:54:59;;;;;;;13.93;5.65;;;16.40;99.90;;;;;;5024733;28;20469;-67
2022/05/21 05:57:24;;;;;;;14.50;5.65;;;16.30;99.90;;;;;;5023312;28;20342;-66
2022/05/21 05:59:50;;;;;;;15.25;5.45;;;16.50;99.90;;;;;;5021271;28;20037;-67
2022/05/21 06:05:06;;;;;;;18.35;5.22;;;16.30;99.90;;;;;;5021657;28;20098;-67
2022/05/21 06:07:31;;;;;;;14.68;4.30;;;16.30;99.90;;;;;;5021439;28;20117;-67
2022/05/21 06:10:06;;;;;;;14.65;3.83;;;16.80;99.90;;;;;;5022252;28;20179;-66
2022/05/21 06:12:31;;;;;;;14.13;3.60;;;17.20;99.90;;;;;;5022575;28;20206;-66
2022/05/21 06:14:57;;;;;;;13.48;3.03;;;16.90;99.90;;;;;;5024238;28;20572;-66
2022/05/21 06:17:23;;;;;;;14.85;3.45;;;16.90;99.90;;;;;;5025870;28;20038;-67
2022/05/21 06:19:49;;;;;;;13.13;3.47;;;17.70;99.90;;;;;;5028789;28;20060;-67
2022/05/21 06:22:14;;;;;;;13.10;3.35;;;18.30;99.90;;;;;;5024849;28;20516;-68
2022/05/21 06:24:40;;;;;;;12.35;3.53;;;19.40;99.90;;;;;;5025332;28;20034;-67
2022/05/21 06:27:06;;;;;;;16.52;4.25;;;19.50;99.90;;;;;;5025052;28;20043;-68
2022/05/21 06:29:32;;;;;;;12.32;3.63;;;20.00;99.90;;;;;;5026879;28;20042;-68
2022/05/21 06:31:57;;;;;;;11.63;3.28;;;19.80;99.90;;;;;;5025778;28;20042;-68
2022/05/21 06:34:24;;;;;;;11.27;3.30;;;20.50;99.90;;;;;;5025918;28;20041;-68
2022/05/21 06:36:50;;;;;;;11.93;3.00;;;21.00;99.90;;;;;;5027345;28;20468;-69
2022/05/21 06:39:16;;;;;;;10.50;3.17;;;21.00;99.90;;;;;;5025754;28;20037;-67
2022/05/21 06:41:41;;;;;;;10.68;3.33;;;20.50;99.90;;;;;;5026932;28;20054;-68
2022/05/21 06:44:09;;;;;;;10.10;2.90;;;20.40;99.90;;;;;;5026636;28;20119;-64
2022/05/21 06:46:35;;;;;;;10.27;2.97;;;19.90;99.90;;;;;;5026840;28;20923;-67
2022/05/21 06:49:00;;;;;;;9.50;3.03;;;19.40;99.90;;;;;;5025979;28;20061;-67
2022/05/21 06:51:26;;;;;;;12.30;3.08;;;19.90;99.90;;;;;;5025716;28;20454;-67
2022/05/21 06:53:51;;;;;;;11.18;3.50;;;19.40;99.90;;;;;;5023808;28;20493;-66
2022/05/21 06:56:18;;;;;;;13.57;3.70;;;19.00;99.90;;;;;;5026819;28;20049;-66
2022/05/21 06:58:44;;;;;;;8.98;2.80;;;19.20;99.90;;;;;;5025091;28;20041;-66
2022/05/21 07:01:10;;;;;;;11.52;3.33;;;18.70;99.90;;;;;;5022023;28;20177;-68
2022/05/21 07:03:36;;;;;;;9.43;2.60;;;18.30;99.90;;;;;;5025176;28;20087;-71
2022/05/21 07:08:54;;;;;;;12.40;3.40;;;17.90;99.90;;;;;;5008063;28;20095;-67
2022/05/21 07:11:20;;;;;;;16.10;2.67;;;17.50;99.90;;;;;;5026805;28;20034;-68
2022/05/21 07:13:46;;;;;;;9.70;2.70;;;18.70;99.90;;;;;;5027312;28;20378;-75
2022/05/21 07:16:12;;;;;;;8.82;2.38;;;18.80;99.90;;;;;;5023646;28;20057;-69
2022/05/21 07:18:37;;;;;;;9.68;2.50;;;19.60;99.90;;;;;;5023537;28;20046;-67
2022/05/21 07:21:03;;;;;;;9.85;2.88;;;20.00;99.90;;;;;;5027482;28;20157;-66
2022/05/21 07:23:29;;;;;;;8.48;2.53;;;19.60;99.90;;;;;;5023932;28;20380;-66
2022/05/21 07:25:55;;;;;;;9.48;2.28;;;19.50;99.90;;;;;;5028174;28;20408;-67
2022/05/21 07:28:21;;;;;;;9.13;2.47;;;19.40;99.90;;;;;;5032675;28;20503;-66
2022/05/21 07:30:47;;;;;;;8.90;2.45;;;19.90;99.90;;;;;;5031154;28;20120;-67
2022/05/21 07:33:18;;;;;;;8.88;2.30;;;20.00;99.90;;;;;;5028052;28;20123;-66
2022/05/21 07:35:45;;;;;;;9.35;2.17;;;20.00;99.90;;;;;;5031186;28;20143;-66
2022/05/21 07:38:12;;;;;;;9.43;2.40;;;19.70;99.90;;;;;;5031071;28;20084;-67
2022/05/21 07:40:39;;;;;;;10.73;2.42;;;19.60;99.90;;;;;;5029653;28;20056;-67
2022/05/21 07:43:18;;;;;;;9.07;2.13;;;19.20;99.90;;;;;;5024310;28;20152;-66
2022/05/21 07:45:46;;;;;;;8.88;2.25;;;19.30;99.90;;;;;;5024844;28;20041;-67
2022/05/21 07:48:14;;;;;;;9.43;2.25;;;19.50;99.90;;;;;;5026654;28;20064;-67
2022/05/21 07:50:43;;;;;;;8.88;2.22;;;19.30;99.90;;;;;;5024827;28;20132;-67
2022/05/21 07:53:14;;;;;;;9.55;2.47;;;19.50;99.90;;;;;;5024613;28;20577;-66
2022/05/21 07:55:44;;;;;;;10.20;2.33;;;19.20;99.90;;;;;;5021935;28;20132;-67
2022/05/21 07:58:11;;;;;;;11.07;2.33;;;19.30;99.90;;;;;;5023788;28;20432;-67
2022/05/21 08:00:37;;;;;;;7.85;2.35;;;18.80;99.90;;;;;;5025712;28;20034;-67
2022/05/21 08:03:03;;;;;;;7.22;2.13;;;18.80;99.90;;;;;;5021984;28;20479;-66
2022/05/21 08:05:29;;;;;;;8.25;2.03;;;18.60;99.90;;;;;;5024600;28;20128;-67
2022/05/21 08:07:55;;;;;;;8.32;2.05;;;18.50;99.90;;;;;;5025191;28;21329;-66
2022/05/21 08:10:22;;;;;;;6.25;2.08;;;18.50;99.90;;;;;;5025199;28;20063;-67
2022/05/21 08:12:49;;;;;;;7.82;2.42;;;18.60;99.90;;;;;;5029098;28;20515;-66
2022/05/21 08:15:15;;;;;;;8.77;1.95;;;18.80;99.90;;;;;;5029775;28;20137;-66
2022/05/21 08:17:41;;;;;;;9.85;2.08;;;18.90;99.90;;;;;;5029713;28;20045;-66
2022/05/21 08:20:10;;;;;;;7.47;2.10;;;18.90;99.90;;;;;;5031302;28;20052;-66
2022/05/21 08:28:04;;;;;;;8.80;2.63;;;19.30;99.90;;;;;;5027079;28;20091;-65
2022/05/21 08:30:30;;;;;;;8.07;2.20;;;19.20;99.90;;;;;;5026870;28;20053;-67
2022/05/21 08:33:04;;;;;;;4.68;1.83;;;19.00;99.90;;;;;;5020772;28;20033;-66
2022/05/21 08:35:30;;;;;;;10.13;2.00;;;18.50;99.90;;;;;;5030443;28;20499;-66
2022/05/21 08:37:56;;;;;;;8.60;2.47;;;18.40;99.90;;;;;;5033992;28;20045;-66
2022/05/21 08:40:29;;;;;;;6.28;1.85;;;18.20;99.90;;;;;;5034578;28;20037;-66
2022/05/21 08:42:58;;;;;;;7.75;1.75;;;18.00;99.90;;;;;;5034400;28;20049;-66
2022/05/21 08:45:31;;;;;;;7.97;2.20;;;17.70;99.90;;;;;;5034699;28;20099;-66
2022/05/21 08:48:07;;;;;;;8.90;2.20;;;17.50;99.90;;;;;;5033206;28;20501;-66
2022/05/21 08:50:34;;;;;;;7.78;2.10;;;17.30;99.90;;;;;;5032070;28;20056;-66
2022/05/21 08:53:11;;;;;;;8.75;2.53;;;17.80;99.90;;;;;;5032680;28;20057;-66
2022/05/21 08:55:39;;;;;;;;;;;18.20;99.90;;;;;;5016027;28;20048;-66
2022/05/21 08:58:26;;;;;;;4.75;1.50;;;18.50;99.90;;;;;;5027337;28;19925;-66
2022/05/21 09:00:53;;;;;;;6.07;1.80;;;19.00;99.90;;;;;;5033636;28;20041;-66
2022/05/21 09:03:23;;;;;;;7.53;2.35;;;19.60;99.90;;;;;;5033605;28;20409;-66
2022/05/21 09:06:07;;;;;;;9.25;2.17;;;19.50;99.90;;;;;;5033251;28;20120;-67
2022/05/21 09:08:50;;;;;;;10.38;2.38;;;19.50;99.90;;;;;;5029823;28;20041;-66
2022/05/21 09:11:24;;;;;;;8.20;1.98;;;19.90;99.90;;;;;;5019424;28;20045;-67
2022/05/21 09:14:22;;;;;;;9.05;1.95;;;19.90;99.90;;;;;;5023737;28;20062;-66
2022/05/21 09:16:56;;;;;;;7.45;1.98;;;19.50;99.90;;;;;;5021814;28;20421;-66
2022/05/21 09:19:21;;;;;;;8.48;1.83;;;19.10;99.90;;;;;;5025515;28;20072;-68
2022/05/21 09:21:48;;;;;;;5.03;2.22;;;19.10;99.90;;;;;;5029086;28;20049;-66
2022/05/21 09:24:54;;;;;;;4.20;1.45;;;19.30;99.90;;;;;;5030587;28;20052;-66
2022/05/21 09:27:32;;;;;;;5.57;2.03;;;18.70;99.90;;;;;;4955649;28;20043;-66
2022/05/21 09:30:24;;;;;;;5.38;2.00;;;18.60;99.90;;;;;;4951254;28;20107;-66
2022/05/21 09:32:52;;;;;;;7.45;1.80;;;;;;;;;;4950025;28;20138;-66
2022/05/21 09:35:21;;;;;;;9.13;2.38;;;18.70;99.90;;;;;;4955490;28;20058;-66
2022/05/21 09:37:46;;;;;;;9.13;2.35;;;19.00;99.90;;;;;;4960015;28;20047;-67
2022/05/21 09:40:37;;;;;;;7.38;1.90;;;19.30;99.90;;;;;;4953093;28;20035;-67
2022/05/21 09:46:32;;;;;;;4.63;1.50;;;19.30;99.90;;;;;;4958250;29;20177;-66
2022/05/21 09:49:28;;;;;;;7.60;1.60;;;19.50;99.90;;;;;;4954564;28;20058;-67
2022/05/21 09:52:01;;;;;;;5.78;1.80;;;19.60;99.90;;;;;;4957811;28;20059;-66
2022/05/21 09:54:32;;;;;;;8.80;2.33;;;19.70;99.90;;;;;;4951157;29;20456;-67
2022/05/21 09:56:59;;;;;;;6.32;1.77;;;19.70;99.90;;;;;;4957289;28;20043;-67
2022/05/21 09:59:27;;;;;;;5.00;1.75;;;19.90;99.90;;;;;;5032597;28;20041;-67
2022/05/21 10:01:58;;;;;;;5.05;1.67;;;20.20;99.90;;;;;;5032316;28;20379;-67
2022/05/21 10:04:32;;;;;;;5.13;1.45;;;20.20;99.90;;;;;;5034273;28;20056;-67
2022/05/21 10:07:06;;;;;;;4.43;1.85;;;20.20;99.90;;;;;;5037541;28;20037;-67
2022/05/21 10:12:33;;;;;;;4.35;2.03;;;20.50;99.90;;;;;;5034380;28;20115;-67
2022/05/21 10:15:05;;;;;;;5.30;1.52;;;20.80;99.90;;;;;;5031720;28;20053;-67
2022/05/21 10:17:43;;;;;;;6.60;1.52;;;21.00;99.90;;;;;;5035165;28;20052;-67
2022/05/21 10:20:19;;;;;;;4.55;1.40;;;20.90;99.90;;;;;;5036743;28;20069;-67
2022/05/21 10:23:00;;;;;;;9.10;1.80;;;20.90;99.90;;;;;;5032348;28;20128;-66
2022/05/21 10:25:45;;;;;;;4.28;1.38;;;20.60;99.90;;;;;;5021336;28;20088;-65
2022/05/21 10:28:34;;;;;;;7.13;1.67;;;20.80;99.90;;;;;;5037991;28;20566;-66
2022/05/21 10:31:25;;;;;;;6.15;1.42;;;20.90;99.90;;;;;;5033854;28;20037;-65
2022/05/21 10:34:08;;;;;;;7.68;1.55;;;21.00;99.90;;;;;;5035192;28;20088;-67
2022/05/21 10:36:53;;;;;;;7.13;1.52;;;20.90;99.90;;;;;;5032754;28;20049;-66
2022/05/21 10:39:36;;;;;;;7.00;1.75;;;20.80;99.90;;;;;;5035263;28;20041;-66
2022/05/21 10:42:37;;;;;;;6.75;1.88;;;20.40;99.90;;;;;;5035947;28;20392;-66
2022/05/21 10:45:45;;;;;;;4.88;1.73;;;20.50;99.90;;;;;;5002810;28;20112;-66
2022/05/21 10:48:39;;;;;;;6.32;2.08;;;19.80;99.90;;;;;;5024625;28;20408;-66
2022/05/21 10:51:04;;;;;;;8.77;2.10;;;20.10;99.90;;;;;;5034726;28;20060;-66
2022/05/21 10:53:48;;;;;;;5.47;1.70;;;20.30;99.90;;;;;;5032774;28;20049;-66
2022/05/21 10:56:43;;;;;;;7.38;1.67;;;19.80;99.90;;;;;;5034453;28;20473;-66
2022/05/21 10:59:21;;;;;;;5.60;1.60;;;19.30;99.90;;;;;;5027797;28;20049;-66
2022/05/21 11:01:49;;;;;;;5.70;1.65;;;19.70;99.90;;;;;;5035432;28;20048;-65
2022/05/21 11:04:54;;;;;;;9.85;2.17;;;19.50;99.90;;;;;;5034908;28;20045;-66
2022/05/21 11:07:47;;;;;;;5.05;1.73;;;19.40;99.90;;;;;;5034370;28;20045;-65
2022/05/21 11:10:25;;;;;;;6.75;1.83;;;19.00;99.90;;;;;;5034074;28;20144;-66
2022/05/21 11:12:59;;;;;;;6.18;1.83;;;18.50;99.90;;;;;;5034614;28;20042;-66
2022/05/21 11:15:36;;;;;;;3.97;1.63;;;18.50;99.90;;;;;;5033306;28;20392;-65
2022/05/21 11:18:13;;;;;;;7.95;2.28;;;18.60;99.90;;;;;;5034613;28;20132;-66
2022/05/21 11:20:45;;;;;;;6.20;1.60;;;19.00;99.90;;;;;;5033163;28;20485;-66
2022/05/21 11:23:32;;;;;;;5.80;1.73;;;19.10;99.90;;;;;;5034424;28;20041;-66
2022/05/21 11:26:05;;;;;;;7.63;1.67;;;19.20;99.90;;;;;;5033341;28;20071;-66
2022/05/21 11:28:52;;;;;;;7.68;1.83;;;19.20;99.90;;;;;;5032592;28;20508;-66
2022/05/21 11:37:21;;;;;;;5.00;1.67;;;19.80;99.90;;;;;;5033925;28;20095;-66
2022/05/21 11:39:56;;;;;;;5.00;1.23;;;19.80;99.90;;;;;;5033714;28;20045;-66
2022/05/21 11:42:30;;;;;;;5.63;1.20;;;19.90;99.90;;;;;;5033908;28;20068;-65
2022/05/21 11:45:19;;;;;;;4.35;1.05;;;19.60;99.90;;;;;;5033852;28;20056;-66
2022/05/21 11:47:50;;;;;;;5.90;1.48;;;19.70;99.90;;;;;;5001718;28;20050;-65
2022/05/21 11:50:24;;;;;;;5.28;1.20;;;19.40;99.90;;;;;;5034208;28;20050;-66
2022/05/21 11:52:56;;;;;;;4.78;1.50;;;19.50;99.90;;;;;;5034843;28;20053;-65
2022/05/21 11:55:29;;;;;;;6.72;1.50;;;19.30;99.90;;;;;;5034796;28;20073;-66
2022/05/21 11:57:57;;;;;;;5.57;1.55;;;19.60;99.90;;;;;;5033022;28;20552;-66
2022/05/21 12:00:26;;;;;;;5.25;1.23;;;19.70;99.90;;;;;;5033564;28;20042;-66
2022/05/21 12:02:54;;;;;;;7.63;1.17;;;19.70;99.90;;;;;;5033409;28;20041;-65
2022/05/21 12:05:46;;;;;;;5.63;1.30;;;19.70;99.90;;;;;;5032982;28;20052;-65
2022/05/21 12:08:21;;;;;;;6.57;1.88;;;20.00;99.90;;;;;;5032989;28;20049;-65
2022/05/21 12:10:52;;;;;;;9.40;1.40;;;20.10;99.90;;;;;;5033017;28;20519;-66
2022/05/21 12:13:21;;;;;;;4.75;1.50;;;19.80;99.90;;;;;;5031700;28;20404;-66
2022/05/21 12:15:52;;;;;;;5.57;1.60;;;19.90;99.90;;;;;;5032354;28;20115;-66
2022/05/21 12:18:37;;;;;;;6.88;1.65;;;20.00;99.90;;;;;;5014245;28;20145;-65
2022/05/21 12:21:06;;;;;;;4.80;1.58;;;20.00;99.90;;;;;;5028036;28;20154;-65
2022/05/21 12:23:32;;;;;;;5.85;1.40;;;19.90;99.90;;;;;;5032191;28;20045;-65
2022/05/21 12:26:03;;;;;;;5.40;1.60;;;19.90;99.90;;;;;;5034475;28;20068;-66
2022/05/21 12:28:36;;;;;;;6.10;1.33;;;20.00;99.90;;;;;;5032533;28;20041;-66
2022/05/21 12:31:07;;;;;;;5.55;1.67;;;19.80;99.90;;;;;;5033086;28;20064;-67
2022/05/21 12:33:39;;;;;;;5.20;1.42;;;19.70;99.90;;;;;;5007566;28;20052;-66
2022/05/21 12:36:39;;;;;;;5.82;1.25;;;19.60;99.90;;;;;;5014989;28;20132;-66
2022/05/21 12:39:08;;;;;;;5.65;1.42;;;19.70;99.90;;;;;;5032123;28;20041;-66
2022/05/21 12:41:39;;;;;;;5.50;1.83;;;19.90;99.90;;;;;;5032955;28;20449;-66
2022/05/21 12:44:05;;;;;;;4.13;1.45;;;20.00;99.90;;;;;;5032072;28;20508;-66
2022/05/21 12:46:35;;;;;;;5.47;1.90;;;20.00;99.90;;;;;;5033423;28;20068;-65
2022/05/21 12:49:04;;;;;;;4.85;1.23;;;19.90;99.90;;;;;;5028594;28;20081;-66
2022/05/21 12:51:34;;;;;;;6.00;1.33;;;19.60;99.90;;;;;;5032713;28;20175;-66
2022/05/21 12:54:03;;;;;;;4.32;1.58;;;19.40;99.90;;;;;;5032840;28;20057;-66
2022/05/21 12:56:37;;;;;;;4.70;1.55;;;19.20;99.90;;;;;;5032119;28;20106;-66
2022/05/21 12:59:27;;;;;;;5.45;1.58;;;19.00;99.90;;;;;;5032679;28;20457;-66
2022/05/21 13:02:11;;;;;;;5.90;2.17;;;19.30;99.90;;;;;;5032805;28;20128;-66
2022/05/21 13:04:40;;;;;;;5.38;1.55;;;19.40;99.90;;;;;;5032151;28;20473;-66
2022/05/21 13:07:34;;;;;;;6.10;1.45;;;19.10;99.90;;;;;;5033271;28;20045;-65
2022/05/21 13:10:12;;;;;;;4.30;1.25;;;19.00;99.90;;;;;;5032057;28;20041;-66
2022/05/21 13:12:43;;;;;;;6.53;1.52;;;19.00;99.90;;;;;;5031843;28;20077;-66
2022/05/21 13:15:11;;;;;;;5.68;1.52;;;19.40;99.90;;;;;;5012664;28;20539;-66
2022/05/21 13:18:19;;;;;;;7.22;1.80;;;19.70;99.90;;;;;;5022207;28;20054;-66
2022/05/21 13:21:22;;;;;;;6.60;1.83;;;19.80;99.90;;;;;;5030769;28;20124;-66
2022/05/21 13:24:03;;;;;;;5.85;2.17;;;19.70;99.90;;;;;;4976067;28;20098;-65
2022/05/21 13:26:32;;;;;;;5.85;1.80;;;19.80;99.90;;;;;;5031510;28;20041;-66
2022/05/21 13:29:26;;;;;;;6.82;1.70;;;20.00;99.90;;;;;;5030841;28;20033;-66
2022/05/21 13:31:54;;;;;;;5.72;2.00;;;20.20;99.90;;;;;;5032250;28;20080;-66
2022/05/21 13:34:23;;;;;;;6.90;1.95;;;20.40;99.90;;;;;;5030851;28;20045;-67